Terminal Aerodrome Forecast
Issued by NWS Blacksburg, VA

Home | Current Version | Previous Version | Text Only | Print | Product List | Glossary On
Versions: 1 2 3 4 5 6 7 8 9 10 11 12 13
000
FTUS41 KRNK 271144
TAFDAN
TAF
KDAN 271144Z 2712/2812 VRB03KT 6SM BR SCT250
      TEMPO 2712/2713 5SM BR
     FM271300 06007KT P6SM SCT050 SCT250
      TEMPO 2718/2722 BKN050
     FM280100 07005KT P6SM SCT050=

USA.gov is the U.S. government's official web portal to all federal, state and local government web resources and services.